createdAt,value
2023-03-24T00:00:33.803Z,19.50
2023-03-24T00:03:05.899Z,19.50
2023-03-24T00:05:43.975Z,19.50
2023-03-24T00:08:13.517Z,19.50
2023-03-24T00:10:40.734Z,19.50
2023-03-24T00:13:09.065Z,19.50
2023-03-24T00:15:39.447Z,19.50
2023-03-24T00:18:12.682Z,19.50
2023-03-24T00:20:44.850Z,19.50
2023-03-24T00:23:12.557Z,19.50
2023-03-24T00:25:43.391Z,19.50
2023-03-24T00:28:11.517Z,19.50
2023-03-24T00:30:41.934Z,19.50
2023-03-24T00:33:11.167Z,19.50
2023-03-24T00:35:45.164Z,19.50
2023-03-24T00:38:18.496Z,19.50
2023-03-24T00:40:49.180Z,19.50
2023-03-24T00:43:16.538Z,19.50
2023-03-24T00:45:46.661Z,19.50
2023-03-24T00:48:18.310Z,19.50
2023-03-24T00:50:48.527Z,19.50
2023-03-24T00:53:17.802Z,19.50
2023-03-24T00:55:50.001Z,19.50
2023-03-24T00:58:20.410Z,19.60
2023-03-24T01:00:51.848Z,19.50
2023-03-24T01:03:19.695Z,19.50
2023-03-24T01:05:48.780Z,19.50
2023-03-24T01:08:19.156Z,19.50
2023-03-24T01:10:57.055Z,19.50
2023-03-24T01:13:34.548Z,19.50
2023-03-24T01:16:07.129Z,19.50
2023-03-24T01:18:40.926Z,19.50
2023-03-24T01:21:08.845Z,19.50
2023-03-24T01:23:35.996Z,19.50
2023-03-24T01:26:06.676Z,19.50
2023-03-24T01:28:34.011Z,19.50
2023-03-24T01:31:04.232Z,19.50
2023-03-24T01:33:34.185Z,19.50
2023-03-24T01:36:08.660Z,19.50
2023-03-24T01:38:38.078Z,19.50
2023-03-24T01:41:08.503Z,19.50
2023-03-24T01:43:36.189Z,19.50
2023-03-24T01:46:06.501Z,19.50
2023-03-24T01:49:14.897Z,19.50
2023-03-24T01:51:45.548Z,19.50
2023-03-24T01:54:17.288Z,19.50
2023-03-24T01:56:46.229Z,19.50
2023-03-24T01:59:17.000Z,19.50
2023-03-24T02:01:44.760Z,19.50
2023-03-24T02:04:13.707Z,19.50
2023-03-24T02:06:41.641Z,19.50
2023-03-24T02:09:10.814Z,19.50
2023-03-24T02:11:38.400Z,19.50
2023-03-24T02:14:12.126Z,19.50
2023-03-24T02:16:54.919Z,19.50
2023-03-24T02:19:26.813Z,19.50
2023-03-24T02:22:14.415Z,19.50
2023-03-24T02:25:06.201Z,19.50
2023-03-24T02:27:39.589Z,19.50
2023-03-24T02:30:26.571Z,19.50
2023-03-24T02:32:54.181Z,19.50
2023-03-24T02:35:26.739Z,19.50
2023-03-24T02:38:00.725Z,19.80
2023-03-24T02:41:00.273Z,19.50
2023-03-24T02:43:27.422Z,19.50
2023-03-24T02:46:07.102Z,19.50
2023-03-24T02:48:36.775Z,19.50
2023-03-24T02:51:10.143Z,19.50
2023-03-24T02:53:55.455Z,19.50
2023-03-24T02:56:33.870Z,19.50
2023-03-24T02:59:06.136Z,19.50
2023-03-24T03:01:38.230Z,19.50
2023-03-24T03:04:22.631Z,19.50
2023-03-24T03:06:51.536Z,19.50
2023-03-24T03:09:21.467Z,19.50
2023-03-24T03:11:53.514Z,19.50
2023-03-24T03:14:23.032Z,19.50
2023-03-24T03:17:03.483Z,19.50
2023-03-24T03:19:41.243Z,19.50
2023-03-24T03:22:10.744Z,19.50
2023-03-24T03:24:44.913Z,19.50
2023-03-24T03:27:19.429Z,19.50
2023-03-24T03:29:51.448Z,19.50
2023-03-24T03:32:25.166Z,19.50
2023-03-24T03:34:59.672Z,19.50
2023-03-24T03:37:29.488Z,19.50
2023-03-24T03:40:00.464Z,19.50
2023-03-24T03:42:27.597Z,19.50
2023-03-24T03:44:56.428Z,19.50
2023-03-24T03:47:29.500Z,19.50
2023-03-24T03:50:05.258Z,19.50
2023-03-24T03:52:40.145Z,19.50
2023-03-24T03:55:17.252Z,19.50
2023-03-24T03:57:44.346Z,19.50
2023-03-24T04:00:20.155Z,19.50
2023-03-24T04:02:56.853Z,19.50
2023-03-24T04:05:34.745Z,19.50
2023-03-24T04:08:22.363Z,19.50
2023-03-24T04:10:58.650Z,19.50
2023-03-24T04:13:28.674Z,19.50
2023-03-24T04:16:01.258Z,19.50
2023-03-24T04:18:31.893Z,19.50
2023-03-24T04:21:18.927Z,19.50
2023-03-24T04:23:53.621Z,19.50
2023-03-24T04:26:34.732Z,19.50
2023-03-24T04:29:09.527Z,19.50
2023-03-24T04:31:43.783Z,19.50
2023-03-24T04:34:12.623Z,19.50
2023-03-24T04:36:44.698Z,19.50
2023-03-24T04:39:13.170Z,19.50
2023-03-24T04:41:49.536Z,19.50
2023-03-24T04:44:24.872Z,19.50
2023-03-24T04:47:01.747Z,19.50
2023-03-24T04:49:28.998Z,19.50
2023-03-24T04:52:05.466Z,19.50
2023-03-24T04:54:35.528Z,19.50
2023-03-24T04:57:02.833Z,19.50
2023-03-24T04:59:38.998Z,19.50
2023-03-24T05:02:09.528Z,19.50
2023-03-24T05:04:43.175Z,19.50
2023-03-24T05:07:18.671Z,19.50
2023-03-24T05:09:45.929Z,19.50
2023-03-24T05:12:15.171Z,19.50
2023-03-24T05:14:48.220Z,19.50
2023-03-24T05:17:15.596Z,19.50
2023-03-24T05:19:42.655Z,19.50
2023-03-24T05:22:16.602Z,19.50
2023-03-24T05:24:46.418Z,19.50
2023-03-24T05:27:15.942Z,19.50
2023-03-24T05:29:45.974Z,19.50
2023-03-24T05:32:13.759Z,19.50
2023-03-24T05:34:49.691Z,19.50
2023-03-24T05:37:19.606Z,19.50
2023-03-24T05:39:46.892Z,19.50
2023-03-24T05:42:20.078Z,19.50
2023-03-24T05:44:47.459Z,19.50
2023-03-24T05:47:16.426Z,19.50
2023-03-24T05:49:46.391Z,19.50
2023-03-24T05:52:16.787Z,19.50
2023-03-24T05:54:43.937Z,19.50
2023-03-24T05:57:17.535Z,19.50
2023-03-24T05:59:53.684Z,19.50
2023-03-24T06:02:24.351Z,19.50
2023-03-24T06:04:52.088Z,19.50
2023-03-24T06:07:26.982Z,19.50
2023-03-24T06:10:05.732Z,19.50
2023-03-24T06:12:41.791Z,19.50
2023-03-24T06:15:18.444Z,19.50
2023-03-24T06:17:50.421Z,19.50
2023-03-24T06:20:18.911Z,19.50
2023-03-24T06:23:12.986Z,19.50
2023-03-24T06:25:47.441Z,19.50
2023-03-24T06:28:17.629Z,19.60
2023-03-24T06:30:55.649Z,19.60
2023-03-24T06:33:54.125Z,19.60
2023-03-24T06:36:25.984Z,19.60
2023-03-24T06:38:56.324Z,19.50
2023-03-24T06:41:23.708Z,19.50
2023-03-24T06:43:51.787Z,19.60
2023-03-24T06:46:19.005Z,19.60
2023-03-24T06:48:47.268Z,19.50
2023-03-24T06:51:14.304Z,19.60
2023-03-24T06:53:41.398Z,19.60
2023-03-24T06:56:08.236Z,19.60
2023-03-24T06:58:41.121Z,19.60
2023-03-24T07:01:07.812Z,19.60
2023-03-24T07:03:34.676Z,19.60
2023-03-24T07:06:07.689Z,19.60
2023-03-24T07:08:38.532Z,19.60
2023-03-24T07:11:07.077Z,19.60
2023-03-24T07:13:33.832Z,19.60
2023-03-24T07:16:00.633Z,19.50
2023-03-24T07:18:27.412Z,19.60
2023-03-24T07:20:54.165Z,19.60
2023-03-24T07:23:20.981Z,19.60
2023-03-24T07:25:47.638Z,19.60
2023-03-24T07:28:14.326Z,19.50
2023-03-24T07:30:41.293Z,19.50
2023-03-24T07:33:08.354Z,19.50
2023-03-24T07:35:35.326Z,19.50
2023-03-24T07:38:02.154Z,19.60
2023-03-24T07:40:30.329Z,19.50
2023-03-24T07:43:00.408Z,19.50
2023-03-24T07:45:28.452Z,19.60
2023-03-24T07:47:57.359Z,19.60
2023-03-24T07:50:24.098Z,19.60
2023-03-24T07:52:51.201Z,19.50
2023-03-24T07:55:28.171Z,19.60
2023-03-24T07:57:54.966Z,19.60
2023-03-24T08:00:22.454Z,19.60
2023-03-24T08:02:49.926Z,19.60
2023-03-24T08:05:23.001Z,19.60
2023-03-24T08:07:53.564Z,19.50
2023-03-24T08:10:24.543Z,19.50
2023-03-24T08:12:51.299Z,19.60
2023-03-24T08:15:24.099Z,19.50
2023-03-24T08:17:51.105Z,19.50
2023-03-24T08:20:19.506Z,19.60
2023-03-24T08:22:50.133Z,19.60
2023-03-24T08:25:17.920Z,19.60
2023-03-24T08:27:44.976Z,19.60
2023-03-24T08:30:16.088Z,19.60
2023-03-24T08:32:59.399Z,19.50
2023-03-24T08:35:27.617Z,19.50
2023-03-24T08:37:54.316Z,19.60
2023-03-24T08:40:23.419Z,19.50
2023-03-24T08:42:51.136Z,19.60
2023-03-24T08:45:27.358Z,19.60
2023-03-24T08:47:54.688Z,19.60
2023-03-24T08:50:22.539Z,19.60
2023-03-24T08:52:49.451Z,19.60
2023-03-24T08:55:22.418Z,19.60
2023-03-24T08:57:49.175Z,19.60
2023-03-24T09:00:16.342Z,19.60
2023-03-24T09:02:49.807Z,19.60
2023-03-24T09:05:21.307Z,19.60
2023-03-24T09:07:53.768Z,19.60
2023-03-24T09:10:22.591Z,19.60
2023-03-24T09:12:49.575Z,19.60
2023-03-24T09:15:16.379Z,19.60
2023-03-24T09:17:43.280Z,19.60
2023-03-24T09:20:12.034Z,19.60
2023-03-24T09:22:39.779Z,19.60
2023-03-24T09:25:08.046Z,19.60
2023-03-24T09:27:34.737Z,19.60
2023-03-24T09:30:01.392Z,19.60
2023-03-24T09:32:28.205Z,19.60
2023-03-24T09:35:01.408Z,19.60
2023-03-24T09:37:31.670Z,19.60
2023-03-24T09:39:59.981Z,19.60
2023-03-24T09:42:26.992Z,19.60
2023-03-24T09:45:00.473Z,19.60
2023-03-24T09:47:31.786Z,19.60
2023-03-24T09:50:00.402Z,19.60
2023-03-24T09:52:32.629Z,19.60
2023-03-24T09:54:59.465Z,19.60
2023-03-24T09:57:27.517Z,19.60
2023-03-24T09:59:54.487Z,19.60
2023-03-24T10:02:21.586Z,19.60
2023-03-24T10:04:48.594Z,19.60
2023-03-24T10:07:44.689Z,19.60
2023-03-24T10:10:34.734Z,19.60
2023-03-24T10:13:05.170Z,19.70
2023-03-24T10:15:37.899Z,19.70
2023-03-24T10:18:17.341Z,19.90
2023-03-24T10:20:44.073Z,19.90
2023-03-24T10:23:29.466Z,20.10
2023-03-24T10:26:14.569Z,20.20
2023-03-24T10:28:51.656Z,20.40
2023-03-24T10:31:28.819Z,20.40
2023-03-24T10:33:55.630Z,20.40
2023-03-24T10:36:22.373Z,20.40
2023-03-24T10:38:49.107Z,20.30
2023-03-24T10:41:16.634Z,20.20
2023-03-24T10:43:50.279Z,20.20
2023-03-24T10:46:18.058Z,20.20
2023-03-24T10:48:45.606Z,20.10
2023-03-24T10:51:16.673Z,20.10
2023-03-24T10:53:48.776Z,20.00
2023-03-24T10:56:16.206Z,20.00
2023-03-24T10:58:43.183Z,20.00
2023-03-24T11:01:21.042Z,20.00
2023-03-24T11:03:47.786Z,19.90
2023-03-24T11:06:16.720Z,19.90
2023-03-24T11:08:43.648Z,19.90
2023-03-24T11:11:33.603Z,19.90
2023-03-24T11:14:03.897Z,19.90
2023-03-24T11:16:37.615Z,19.90
2023-03-24T11:19:32.640Z,19.90
2023-03-24T11:22:00.046Z,19.80
2023-03-24T11:24:27.252Z,19.90
2023-03-24T11:27:01.740Z,19.80
2023-03-24T11:29:30.419Z,19.90
2023-03-24T11:32:03.677Z,19.90
2023-03-24T11:34:38.655Z,19.90
2023-03-24T11:37:05.495Z,19.90
2023-03-24T11:39:34.230Z,19.90
2023-03-24T11:42:17.471Z,19.90
2023-03-24T11:44:45.656Z,19.80
2023-03-24T11:47:34.096Z,19.80
2023-03-24T11:50:13.344Z,19.80
2023-03-24T11:52:42.729Z,19.80
2023-03-24T11:55:14.088Z,19.80
2023-03-24T11:57:40.839Z,19.80
2023-03-24T12:00:13.917Z,19.80
2023-03-24T12:02:48.762Z,19.80
2023-03-24T12:05:21.469Z,19.80
2023-03-24T12:07:57.506Z,19.80
2023-03-24T12:10:53.863Z,19.80
2023-03-24T12:13:32.359Z,19.80
2023-03-24T12:16:06.287Z,19.70
2023-03-24T12:18:34.565Z,19.80
2023-03-24T12:21:16.907Z,19.80
2023-03-24T12:23:53.390Z,19.80
2023-03-24T12:26:23.112Z,19.80
2023-03-24T12:29:08.745Z,19.70
2023-03-24T12:32:04.863Z,19.80
2023-03-24T12:34:42.498Z,19.70
2023-03-24T12:37:22.646Z,19.80
2023-03-24T12:39:52.383Z,19.80
2023-03-24T12:42:19.565Z,19.70
2023-03-24T12:44:49.923Z,19.70
2023-03-24T12:47:25.895Z,19.80
2023-03-24T12:49:58.806Z,19.70
2023-03-24T12:52:34.686Z,19.70
2023-03-24T12:55:04.275Z,19.80
2023-03-24T12:57:50.544Z,19.70
2023-03-24T13:00:22.569Z,19.70
2023-03-24T13:02:51.791Z,19.70
2023-03-24T13:05:24.124Z,19.70
2023-03-24T13:07:54.168Z,19.70
2023-03-24T13:10:27.626Z,19.70
2023-03-24T13:12:56.389Z,19.70
2023-03-24T13:15:24.752Z,19.70
2023-03-24T13:17:51.476Z,19.70
2023-03-24T13:20:25.779Z,19.70
2023-03-24T13:22:53.054Z,19.70
2023-03-24T13:25:32.119Z,19.70
2023-03-24T13:27:59.868Z,19.70
2023-03-24T13:30:33.980Z,19.80
2023-03-24T13:33:02.721Z,19.90
2023-03-24T13:35:33.698Z,20.10
2023-03-24T13:38:19.232Z,20.20
2023-03-24T13:40:47.013Z,20.30
2023-03-24T13:43:14.187Z,20.50
2023-03-24T13:45:41.321Z,20.50
2023-03-24T13:48:11.339Z,20.50
2023-03-24T13:50:41.927Z,20.40
2023-03-24T13:53:13.257Z,20.40
2023-03-24T13:55:48.647Z,20.30
2023-03-24T13:58:18.556Z,20.30
2023-03-24T14:01:14.909Z,20.20
2023-03-24T14:03:43.439Z,20.20
2023-03-24T14:06:22.252Z,20.10
2023-03-24T14:08:52.279Z,20.10
2023-03-24T14:11:31.299Z,20.10
2023-03-24T14:14:13.372Z,20.00
2023-03-24T14:16:43.293Z,20.00
2023-03-24T14:19:21.283Z,20.00
2023-03-24T14:22:11.448Z,20.00
2023-03-24T14:24:42.221Z,20.00
2023-03-24T14:27:23.657Z,19.90
2023-03-24T14:29:54.343Z,19.90
2023-03-24T14:32:23.126Z,19.90
2023-03-24T14:34:50.880Z,19.90
2023-03-24T14:37:17.594Z,19.90
2023-03-24T14:39:45.536Z,19.90
2023-03-24T14:42:28.450Z,19.90
2023-03-24T14:44:56.260Z,19.90
2023-03-24T14:47:29.256Z,19.90
2023-03-24T14:49:57.095Z,19.90
2023-03-24T14:52:24.912Z,19.90
2023-03-24T14:54:55.367Z,19.90
2023-03-24T14:57:28.873Z,19.90
2023-03-24T15:00:06.930Z,19.90
2023-03-24T15:02:38.018Z,19.90
2023-03-24T15:05:14.240Z,19.90
2023-03-24T15:07:41.674Z,19.90
2023-03-24T15:10:18.176Z,19.90
2023-03-24T15:12:48.297Z,19.80
2023-03-24T15:15:17.185Z,19.80
2023-03-24T15:17:44.027Z,19.90
2023-03-24T15:20:40.343Z,19.90
2023-03-24T15:23:07.421Z,19.80
2023-03-24T15:25:34.308Z,19.80
2023-03-24T15:28:03.758Z,19.80
2023-03-24T15:30:32.077Z,19.90
2023-03-24T15:32:58.852Z,19.80
2023-03-24T15:35:25.624Z,19.80
2023-03-24T15:37:56.523Z,19.80
2023-03-24T15:40:26.316Z,19.80
2023-03-24T15:42:54.401Z,19.80
2023-03-24T15:45:22.264Z,19.80
2023-03-24T15:47:50.361Z,19.90
2023-03-24T15:50:31.259Z,19.90
2023-03-24T15:53:02.797Z,19.80
2023-03-24T15:55:34.941Z,19.80
2023-03-24T15:58:02.221Z,19.90
2023-03-24T16:00:41.441Z,19.90
2023-03-24T16:03:09.980Z,19.90
2023-03-24T16:05:37.765Z,19.90
2023-03-24T16:08:08.168Z,19.90
2023-03-24T16:10:43.207Z,19.80
2023-03-24T16:13:16.876Z,19.80
2023-03-24T16:15:44.439Z,19.80
2023-03-24T16:18:17.872Z,19.80
2023-03-24T16:20:44.661Z,19.80
2023-03-24T16:23:12.035Z,20.00
2023-03-24T16:25:38.855Z,20.10
2023-03-24T16:28:05.886Z,20.20
2023-03-24T16:30:37.863Z,20.40
2023-03-24T16:33:04.890Z,20.50
2023-03-24T16:35:31.737Z,20.50
2023-03-24T16:37:58.476Z,20.50
2023-03-24T16:40:38.290Z,20.50
2023-03-24T16:43:05.141Z,20.40
2023-03-24T16:45:32.024Z,20.40
2023-03-24T16:47:59.185Z,20.30
2023-03-24T16:50:27.574Z,20.30
2023-03-24T16:52:54.312Z,20.30
2023-03-24T16:55:21.352Z,20.20
2023-03-24T16:57:48.084Z,20.20
2023-03-24T17:00:15.021Z,20.10
2023-03-24T17:02:48.323Z,20.10
2023-03-24T17:05:19.547Z,20.10
2023-03-24T17:07:46.912Z,20.10
2023-03-24T17:10:13.750Z,20.10
2023-03-24T17:12:40.499Z,20.10
2023-03-24T17:15:07.510Z,20.10
2023-03-24T17:17:34.823Z,20.10
2023-03-24T17:20:03.371Z,20.10
2023-03-24T17:22:31.989Z,20.00
2023-03-24T17:24:59.031Z,20.00
2023-03-24T17:27:25.880Z,20.00
2023-03-24T17:29:52.551Z,20.00
2023-03-24T17:32:21.133Z,20.00
2023-03-24T17:34:49.947Z,20.00
2023-03-24T17:37:16.629Z,20.00
2023-03-24T17:39:43.420Z,20.00
2023-03-24T17:42:10.155Z,20.00
2023-03-24T17:44:36.901Z,20.00
2023-03-24T17:47:03.662Z,20.00
2023-03-24T17:49:30.393Z,20.00
2023-03-24T17:51:57.960Z,20.00
2023-03-24T17:54:25.516Z,19.90
2023-03-24T17:56:52.477Z,19.90
2023-03-24T17:59:19.296Z,19.90
2023-03-24T18:01:47.287Z,19.90
2023-03-24T18:04:14.046Z,19.90
2023-03-24T18:06:42.362Z,19.90
2023-03-24T18:09:09.338Z,19.90
2023-03-24T18:11:36.433Z,19.90
2023-03-24T18:14:03.123Z,19.90
2023-03-24T18:16:35.393Z,19.90
2023-03-24T18:19:02.580Z,19.90
2023-03-24T18:21:29.331Z,19.90
2023-03-24T18:23:56.351Z,19.90
2023-03-24T18:26:23.434Z,19.90
2023-03-24T18:28:50.337Z,19.90
2023-03-24T18:31:20.929Z,19.90
2023-03-24T18:33:48.116Z,19.90
2023-03-24T18:36:16.636Z,19.90
2023-03-24T18:38:43.587Z,19.90
2023-03-24T18:41:10.494Z,19.90
2023-03-24T18:43:39.414Z,19.80
2023-03-24T18:46:09.458Z,19.80
2023-03-24T18:48:39.723Z,19.90
2023-03-24T18:51:06.431Z,19.90
2023-03-24T18:53:34.601Z,19.90
2023-03-24T18:56:01.718Z,19.90
2023-03-24T18:58:28.437Z,19.90
2023-03-24T19:00:56.641Z,19.90
2023-03-24T19:03:23.731Z,19.80
2023-03-24T19:05:53.097Z,19.90
2023-03-24T19:08:20.394Z,19.80
2023-03-24T19:10:47.270Z,19.90
2023-03-24T19:13:16.530Z,20.00
2023-03-24T19:15:46.036Z,20.20
2023-03-24T19:18:13.048Z,20.30
2023-03-24T19:20:40.237Z,20.40
2023-03-24T19:23:07.274Z,20.50
2023-03-24T19:25:33.941Z,20.50
2023-03-24T19:28:00.887Z,20.50
2023-03-24T19:30:27.584Z,20.40
2023-03-24T19:32:54.501Z,20.40
2023-03-24T19:35:21.353Z,20.30
2023-03-24T19:37:48.199Z,20.30
2023-03-24T19:40:15.683Z,20.20
2023-03-24T19:42:43.444Z,20.20
2023-03-24T19:45:11.028Z,20.20
2023-03-24T19:47:37.813Z,20.20
2023-03-24T19:50:06.421Z,20.10
2023-03-24T19:52:34.287Z,20.10
2023-03-24T19:55:01.010Z,20.10
2023-03-24T19:57:30.510Z,20.00
2023-03-24T19:59:57.574Z,20.10
2023-03-24T20:02:24.806Z,20.10
2023-03-24T20:04:52.109Z,20.00
2023-03-24T20:07:18.989Z,20.00
2023-03-24T20:09:45.677Z,20.00
2023-03-24T20:12:12.422Z,20.00
2023-03-24T20:14:39.179Z,20.00
2023-03-24T20:17:06.176Z,19.90
2023-03-24T20:19:32.936Z,19.90
2023-03-24T20:22:05.904Z,19.90
2023-03-24T20:24:34.436Z,19.90
2023-03-24T20:27:01.159Z,19.90
2023-03-24T20:29:27.834Z,19.90
2023-03-24T20:31:54.567Z,19.90
2023-03-24T20:34:24.811Z,19.90
2023-03-24T20:36:51.681Z,19.90
2023-03-24T20:39:18.388Z,19.90
2023-03-24T20:41:45.132Z,19.90
2023-03-24T20:44:11.837Z,19.90
2023-03-24T20:46:38.602Z,19.90
2023-03-24T20:49:05.759Z,19.80
2023-03-24T20:51:32.456Z,19.90
2023-03-24T20:53:59.176Z,19.90
2023-03-24T20:56:25.891Z,19.80
2023-03-24T20:58:52.651Z,19.90
2023-03-24T21:01:23.980Z,19.90
2023-03-24T21:03:51.355Z,19.80
2023-03-24T21:06:18.396Z,19.90
2023-03-24T21:08:49.223Z,19.80
2023-03-24T21:11:16.185Z,19.80
2023-03-24T21:13:43.973Z,19.80
2023-03-24T21:16:11.449Z,19.80
2023-03-24T21:18:42.730Z,19.80
2023-03-24T21:21:12.601Z,19.80
2023-03-24T21:23:39.692Z,19.80
2023-03-24T21:26:08.706Z,19.80
2023-03-24T21:28:35.448Z,19.80
2023-03-24T21:31:12.493Z,19.80
2023-03-24T21:33:40.832Z,19.80
2023-03-24T21:36:08.482Z,19.80
2023-03-24T21:38:35.765Z,19.80
2023-03-24T21:41:02.564Z,19.80
2023-03-24T21:43:30.351Z,19.80
2023-03-24T21:45:57.665Z,19.80
2023-03-24T21:48:27.713Z,19.80
2023-03-24T21:50:57.534Z,19.80
2023-03-24T21:53:26.216Z,19.80
2023-03-24T21:55:53.804Z,19.80
2023-03-24T21:58:20.524Z,19.80
2023-03-24T22:00:47.589Z,19.80
2023-03-24T22:03:15.613Z,19.80
2023-03-24T22:05:42.532Z,19.80
2023-03-24T22:08:09.271Z,19.80
2023-03-24T22:10:36.318Z,19.80
2023-03-24T22:13:03.085Z,19.80
2023-03-24T22:15:32.426Z,19.80
2023-03-24T22:17:59.778Z,19.80
2023-03-24T22:20:28.256Z,19.80
2023-03-24T22:22:55.077Z,19.80
2023-03-24T22:25:27.961Z,19.80
2023-03-24T22:27:56.152Z,19.70
2023-03-24T22:30:29.101Z,19.70
2023-03-24T22:32:55.992Z,19.70
2023-03-24T22:35:26.320Z,19.70
2023-03-24T22:37:53.101Z,19.70
2023-03-24T22:40:22.849Z,19.70
2023-03-24T22:42:49.540Z,19.70
2023-03-24T22:45:19.382Z,19.70
2023-03-24T22:47:49.272Z,19.70
2023-03-24T22:50:22.072Z,19.70
2023-03-24T22:52:48.766Z,19.70
2023-03-24T22:55:18.510Z,19.70
2023-03-24T22:57:45.335Z,19.70
2023-03-24T23:00:12.931Z,19.70
2023-03-24T23:02:39.848Z,19.70
2023-03-24T23:05:12.654Z,19.70
2023-03-24T23:07:45.501Z,19.70
2023-03-24T23:10:12.926Z,19.70
2023-03-24T23:12:40.267Z,19.70
2023-03-24T23:15:07.894Z,19.70
2023-03-24T23:17:34.715Z,19.70
2023-03-24T23:20:07.407Z,19.70
2023-03-24T23:22:34.099Z,19.70
2023-03-24T23:25:03.156Z,19.70
2023-03-24T23:27:33.084Z,19.60
2023-03-24T23:29:59.818Z,19.60
2023-03-24T23:32:26.710Z,19.70
2023-03-24T23:35:05.948Z,19.70
2023-03-24T23:37:35.842Z,19.70
2023-03-24T23:40:09.458Z,19.60
2023-03-24T23:42:36.930Z,19.70
2023-03-24T23:45:07.022Z,19.60
2023-03-24T23:47:33.935Z,19.70
2023-03-24T23:50:00.954Z,19.60
2023-03-24T23:52:27.857Z,19.60
2023-03-24T23:54:54.654Z,19.70
2023-03-24T23:57:30.543Z,19.70
2023-03-24T23:59:57.262Z,19.60
